sensor_id;sensor_type;location;lat;lon;timestamp;temperature;humidity
24744;DHT22;12844;52.110;5.548;2023-07-31T00:13:04;23.50;55.00
24744;DHT22;12844;52.110;5.548;2023-07-31T00:15:30;23.50;55.00
24744;DHT22;12844;52.110;5.548;2023-07-31T00:17:55;23.50;55.00
24744;DHT22;12844;52.110;5.548;2023-07-31T00:20:21;23.50;55.00
24744;DHT22;12844;52.110;5.548;2023-07-31T00:22:47;23.50;55.10
24744;DHT22;12844;52.110;5.548;2023-07-31T00:25:12;23.50;55.10
24744;DHT22;12844;52.110;5.548;2023-07-31T00:27:38;23.50;55.10
24744;DHT22;12844;52.110;5.548;2023-07-31T00:30:03;23.50;55.10
24744;DHT22;12844;52.110;5.548;2023-07-31T00:32:29;23.50;55.10
24744;DHT22;12844;52.110;5.548;2023-07-31T00:34:55;23.50;55.10
24744;DHT22;12844;52.110;5.548;2023-07-31T00:37:20;23.50;55.10
24744;DHT22;12844;52.110;5.548;2023-07-31T00:39:46;23.50;55.10
24744;DHT22;12844;52.110;5.548;2023-07-31T00:42:11;23.50;55.10
24744;DHT22;12844;52.110;5.548;2023-07-31T00:44:37;23.40;55.00
24744;DHT22;12844;52.110;5.548;2023-07-31T00:47:03;23.40;55.00
24744;DHT22;12844;52.110;5.548;2023-07-31T00:49:28;23.50;55.10
24744;DHT22;12844;52.110;5.548;2023-07-31T00:51:54;23.40;55.00
24744;DHT22;12844;52.110;5.548;2023-07-31T00:54:22;23.40;55.10
24744;DHT22;12844;52.110;5.548;2023-07-31T00:56:48;23.50;55.10
24744;DHT22;12844;52.110;5.548;2023-07-31T00:59:15;23.40;55.00
24744;DHT22;12844;52.110;5.548;2023-07-31T01:01:41;23.40;55.00
24744;DHT22;12844;52.110;5.548;2023-07-31T01:04:07;23.40;55.00
24744;DHT22;12844;52.110;5.548;2023-07-31T01:09:46;23.50;55.10
24744;DHT22;12844;52.110;5.548;2023-07-31T01:12:16;23.40;55.10
24744;DHT22;12844;52.110;5.548;2023-07-31T01:15:02;23.40;55.10
24744;DHT22;12844;52.110;5.548;2023-07-31T01:17:28;23.40;55.10
24744;DHT22;12844;52.110;5.548;2023-07-31T01:19:56;23.40;55.20
24744;DHT22;12844;52.110;5.548;2023-07-31T01:25:31;23.40;55.10
24744;DHT22;12844;52.110;5.548;2023-07-31T01:28:06;23.40;55.70
24744;DHT22;12844;52.110;5.548;2023-07-31T01:30:34;23.40;55.10
24744;DHT22;12844;52.110;5.548;2023-07-31T01:33:03;23.40;55.10
24744;DHT22;12844;52.110;5.548;2023-07-31T01:35:36;23.40;55.10
24744;DHT22;12844;52.110;5.548;2023-07-31T01:38:03;23.40;55.10
24744;DHT22;12844;52.110;5.548;2023-07-31T01:40:28;23.40;55.10
24744;DHT22;12844;52.110;5.548;2023-07-31T01:42:54;23.40;55.10
24744;DHT22;12844;52.110;5.548;2023-07-31T01:45:20;23.40;55.10
24744;DHT22;12844;52.110;5.548;2023-07-31T01:47:45;23.40;55.10
24744;DHT22;12844;52.110;5.548;2023-07-31T01:50:11;23.40;55.10
24744;DHT22;12844;52.110;5.548;2023-07-31T01:52:36;23.40;55.10
24744;DHT22;12844;52.110;5.548;2023-07-31T01:55:02;23.40;55.10
24744;DHT22;12844;52.110;5.548;2023-07-31T01:57:28;23.40;55.10
24744;DHT22;12844;52.110;5.548;2023-07-31T01:59:53;23.40;55.10
24744;DHT22;12844;52.110;5.548;2023-07-31T02:02:19;23.40;55.10
24744;DHT22;12844;52.110;5.548;2023-07-31T02:04:46;23.40;55.10
24744;DHT22;12844;52.110;5.548;2023-07-31T02:07:12;23.40;55.00
24744;DHT22;12844;52.110;5.548;2023-07-31T02:09:37;23.40;55.00
24744;DHT22;12844;52.110;5.548;2023-07-31T02:12:03;23.40;55.10
24744;DHT22;12844;52.110;5.548;2023-07-31T02:14:28;23.40;55.00
24744;DHT22;12844;52.110;5.548;2023-07-31T02:16:54;23.40;55.00
24744;DHT22;12844;52.110;5.548;2023-07-31T02:19:20;23.40;55.00
24744;DHT22;12844;52.110;5.548;2023-07-31T02:21:45;23.40;55.00
24744;DHT22;12844;52.110;5.548;2023-07-31T02:24:11;23.40;55.00
24744;DHT22;12844;52.110;5.548;2023-07-31T02:26:36;23.40;55.00
24744;DHT22;12844;52.110;5.548;2023-07-31T02:29:02;23.40;55.00
24744;DHT22;12844;52.110;5.548;2023-07-31T02:31:27;23.40;55.00
24744;DHT22;12844;52.110;5.548;2023-07-31T02:33:53;23.40;55.00
24744;DHT22;12844;52.110;5.548;2023-07-31T02:36:18;23.30;55.00
24744;DHT22;12844;52.110;5.548;2023-07-31T02:38:44;23.40;55.00
24744;DHT22;12844;52.110;5.548;2023-07-31T02:41:09;23.40;55.00
24744;DHT22;12844;52.110;5.548;2023-07-31T02:43:35;23.40;55.00
24744;DHT22;12844;52.110;5.548;2023-07-31T02:46:00;23.40;55.10
24744;DHT22;12844;52.110;5.548;2023-07-31T02:48:26;23.40;55.00
24744;DHT22;12844;52.110;5.548;2023-07-31T02:50:52;23.40;55.00
24744;DHT22;12844;52.110;5.548;2023-07-31T02:53:17;23.40;55.10
24744;DHT22;12844;52.110;5.548;2023-07-31T02:55:43;23.40;55.00
24744;DHT22;12844;52.110;5.548;2023-07-31T02:58:08;23.40;55.10
24744;DHT22;12844;52.110;5.548;2023-07-31T03:00:34;23.40;55.00
24744;DHT22;12844;52.110;5.548;2023-07-31T03:02:59;23.40;55.00
24744;DHT22;12844;52.110;5.548;2023-07-31T03:05:25;23.40;55.10
24744;DHT22;12844;52.110;5.548;2023-07-31T03:07:50;23.40;55.00
24744;DHT22;12844;52.110;5.548;2023-07-31T03:10:16;23.40;55.60
24744;DHT22;12844;52.110;5.548;2023-07-31T03:12:41;23.40;55.00
24744;DHT22;12844;52.110;5.548;2023-07-31T03:15:07;23.40;55.00
24744;DHT22;12844;52.110;5.548;2023-07-31T03:17:33;23.40;55.00
24744;DHT22;12844;52.110;5.548;2023-07-31T03:19:59;23.40;55.00
24744;DHT22;12844;52.110;5.548;2023-07-31T03:22:24;23.40;55.00
24744;DHT22;12844;52.110;5.548;2023-07-31T03:24:50;23.40;55.00
24744;DHT22;12844;52.110;5.548;2023-07-31T03:27:15;23.30;55.60
24744;DHT22;12844;52.110;5.548;2023-07-31T03:29:41;23.40;55.00
24744;DHT22;12844;52.110;5.548;2023-07-31T03:32:06;23.40;55.00
24744;DHT22;12844;52.110;5.548;2023-07-31T03:34:32;23.30;55.00
24744;DHT22;12844;52.110;5.548;2023-07-31T03:36:58;23.40;55.00
24744;DHT22;12844;52.110;5.548;2023-07-31T03:39:24;23.40;55.00
24744;DHT22;12844;52.110;5.548;2023-07-31T03:41:49;23.30;55.00
24744;DHT22;12844;52.110;5.548;2023-07-31T03:44:15;23.40;55.00
24744;DHT22;12844;52.110;5.548;2023-07-31T03:46:40;23.30;55.00
24744;DHT22;12844;52.110;5.548;2023-07-31T03:49:06;23.40;55.00
24744;DHT22;12844;52.110;5.548;2023-07-31T03:51:31;23.40;55.00
24744;DHT22;12844;52.110;5.548;2023-07-31T03:53:57;23.30;55.00
24744;DHT22;12844;52.110;5.548;2023-07-31T03:56:22;23.40;55.00
24744;DHT22;12844;52.110;5.548;2023-07-31T03:58:48;23.40;55.00
24744;DHT22;12844;52.110;5.548;2023-07-31T04:01:13;23.40;55.00
24744;DHT22;12844;52.110;5.548;2023-07-31T04:03:39;23.30;55.00
24744;DHT22;12844;52.110;5.548;2023-07-31T04:06:04;23.30;55.00
24744;DHT22;12844;52.110;5.548;2023-07-31T04:08:32;23.30;55.00
24744;DHT22;12844;52.110;5.548;2023-07-31T04:10:57;23.30;55.00
24744;DHT22;12844;52.110;5.548;2023-07-31T04:13:23;23.30;55.00
24744;DHT22;12844;52.110;5.548;2023-07-31T04:15:49;23.30;55.00
24744;DHT22;12844;52.110;5.548;2023-07-31T04:18:18;23.30;55.00
24744;DHT22;12844;52.110;5.548;2023-07-31T04:20:44;23.30;55.00
24744;DHT22;12844;52.110;5.548;2023-07-31T04:23:09;23.30;55.00
24744;DHT22;12844;52.110;5.548;2023-07-31T04:25:35;23.30;55.00
24744;DHT22;12844;52.110;5.548;2023-07-31T04:28:01;23.30;55.00
24744;DHT22;12844;52.110;5.548;2023-07-31T04:30:26;23.30;55.00
24744;DHT22;12844;52.110;5.548;2023-07-31T04:32:52;23.30;55.00
24744;DHT22;12844;52.110;5.548;2023-07-31T04:35:17;23.30;55.00
24744;DHT22;12844;52.110;5.548;2023-07-31T04:37:43;23.30;55.00
24744;DHT22;12844;52.110;5.548;2023-07-31T04:40:10;23.30;55.00
24744;DHT22;12844;52.110;5.548;2023-07-31T04:42:36;23.30;55.00
24744;DHT22;12844;52.110;5.548;2023-07-31T04:45:01;23.30;55.00
24744;DHT22;12844;52.110;5.548;2023-07-31T04:47:27;23.30;55.00
24744;DHT22;12844;52.110;5.548;2023-07-31T04:49:52;23.30;55.00
24744;DHT22;12844;52.110;5.548;2023-07-31T04:52:18;23.30;54.90
24744;DHT22;12844;52.110;5.548;2023-07-31T04:54:43;23.30;55.00
24744;DHT22;12844;52.110;5.548;2023-07-31T04:57:09;23.30;55.00
24744;DHT22;12844;52.110;5.548;2023-07-31T04:59:34;23.30;54.90
24744;DHT22;12844;52.110;5.548;2023-07-31T05:02:00;23.30;54.90
24744;DHT22;12844;52.110;5.548;2023-07-31T05:04:25;23.30;54.90
24744;DHT22;12844;52.110;5.548;2023-07-31T05:06:51;23.30;54.90
24744;DHT22;12844;52.110;5.548;2023-07-31T05:09:16;23.30;54.90
24744;DHT22;12844;52.110;5.548;2023-07-31T05:11:42;23.30;54.90
24744;DHT22;12844;52.110;5.548;2023-07-31T05:14:08;23.30;55.00
24744;DHT22;12844;52.110;5.548;2023-07-31T05:16:34;23.30;54.90
24744;DHT22;12844;52.110;5.548;2023-07-31T05:18:59;23.30;54.90
24744;DHT22;12844;52.110;5.548;2023-07-31T05:21:25;23.30;55.00
24744;DHT22;12844;52.110;5.548;2023-07-31T05:23:51;23.30;55.60
24744;DHT22;12844;52.110;5.548;2023-07-31T05:26:16;23.30;54.90
24744;DHT22;12844;52.110;5.548;2023-07-31T05:28:43;23.30;54.90
24744;DHT22;12844;52.110;5.548;2023-07-31T05:31:08;23.30;54.90
24744;DHT22;12844;52.110;5.548;2023-07-31T05:33:34;23.30;55.00
24744;DHT22;12844;52.110;5.548;2023-07-31T05:35:59;23.30;54.90
24744;DHT22;12844;52.110;5.548;2023-07-31T05:38:25;23.30;54.90
24744;DHT22;12844;52.110;5.548;2023-07-31T05:40:51;23.30;55.00
24744;DHT22;12844;52.110;5.548;2023-07-31T05:43:16;23.30;54.90
24744;DHT22;12844;52.110;5.548;2023-07-31T05:45:42;23.30;54.90
24744;DHT22;12844;52.110;5.548;2023-07-31T05:48:08;23.30;54.90
24744;DHT22;12844;52.110;5.548;2023-07-31T05:50:33;23.20;54.80
24744;DHT22;12844;52.110;5.548;2023-07-31T05:52:59;23.20;54.90
24744;DHT22;12844;52.110;5.548;2023-07-31T05:55:25;23.20;54.90
24744;DHT22;12844;52.110;5.548;2023-07-31T05:57:54;23.20;54.80
24744;DHT22;12844;52.110;5.548;2023-07-31T06:00:20;23.20;55.50
24744;DHT22;12844;52.110;5.548;2023-07-31T06:02:47;23.20;54.90
24744;DHT22;12844;52.110;5.548;2023-07-31T06:05:12;23.20;54.90
24744;DHT22;12844;52.110;5.548;2023-07-31T06:07:38;23.20;54.90
24744;DHT22;12844;52.110;5.548;2023-07-31T06:10:04;23.20;54.90
24744;DHT22;12844;52.110;5.548;2023-07-31T06:12:30;23.20;54.80
24744;DHT22;12844;52.110;5.548;2023-07-31T06:14:56;23.20;54.90
24744;DHT22;12844;52.110;5.548;2023-07-31T06:17:22;23.20;54.90
24744;DHT22;12844;52.110;5.548;2023-07-31T06:19:49;23.30;55.00
24744;DHT22;12844;52.110;5.548;2023-07-31T06:22:15;23.20;54.90
24744;DHT22;12844;52.110;5.548;2023-07-31T06:24:40;23.30;55.00
24744;DHT22;12844;52.110;5.548;2023-07-31T06:27:06;23.20;55.00
24744;DHT22;12844;52.110;5.548;2023-07-31T06:29:32;23.20;55.00
24744;DHT22;12844;52.110;5.548;2023-07-31T06:31:58;23.20;55.00
24744;DHT22;12844;52.110;5.548;2023-07-31T06:34:23;23.20;55.00
24744;DHT22;12844;52.110;5.548;2023-07-31T06:36:49;23.20;55.00
24744;DHT22;12844;52.110;5.548;2023-07-31T06:39:14;23.20;55.00
24744;DHT22;12844;52.110;5.548;2023-07-31T06:41:40;23.20;55.00
24744;DHT22;12844;52.110;5.548;2023-07-31T06:44:05;23.20;55.00
24744;DHT22;12844;52.110;5.548;2023-07-31T06:46:31;23.20;55.00
24744;DHT22;12844;52.110;5.548;2023-07-31T06:48:56;23.20;55.00
24744;DHT22;12844;52.110;5.548;2023-07-31T06:51:22;23.20;55.00
24744;DHT22;12844;52.110;5.548;2023-07-31T06:53:47;23.20;55.00
24744;DHT22;12844;52.110;5.548;2023-07-31T06:56:13;23.20;54.90
24744;DHT22;12844;52.110;5.548;2023-07-31T06:58:39;23.20;54.90
24744;DHT22;12844;52.110;5.548;2023-07-31T07:01:04;23.20;54.90
24744;DHT22;12844;52.110;5.548;2023-07-31T07:03:30;23.20;54.90
24744;DHT22;12844;52.110;5.548;2023-07-31T07:05:55;23.20;54.90
24744;DHT22;12844;52.110;5.548;2023-07-31T07:08:21;23.20;54.90
24744;DHT22;12844;52.110;5.548;2023-07-31T07:10:47;23.20;54.90
24744;DHT22;12844;52.110;5.548;2023-07-31T07:13:13;23.20;54.90
24744;DHT22;12844;52.110;5.548;2023-07-31T07:15:38;23.20;54.90
24744;DHT22;12844;52.110;5.548;2023-07-31T07:18:04;23.20;54.90
24744;DHT22;12844;52.110;5.548;2023-07-31T07:20:30;23.20;54.90
24744;DHT22;12844;52.110;5.548;2023-07-31T07:22:55;23.20;55.00
24744;DHT22;12844;52.110;5.548;2023-07-31T07:25:21;23.20;54.90
24744;DHT22;12844;52.110;5.548;2023-07-31T07:27:46;23.20;54.90
24744;DHT22;12844;52.110;5.548;2023-07-31T07:30:12;23.30;55.00
24744;DHT22;12844;52.110;5.548;2023-07-31T07:32:37;23.20;54.90
24744;DHT22;12844;52.110;5.548;2023-07-31T07:35:03;23.20;55.00
24744;DHT22;12844;52.110;5.548;2023-07-31T07:37:29;23.20;55.00
24744;DHT22;12844;52.110;5.548;2023-07-31T07:39:54;23.20;54.90
24744;DHT22;12844;52.110;5.548;2023-07-31T07:42:20;23.20;54.90
24744;DHT22;12844;52.110;5.548;2023-07-31T07:44:45;23.20;55.00
24744;DHT22;12844;52.110;5.548;2023-07-31T07:47:12;23.20;55.00
24744;DHT22;12844;52.110;5.548;2023-07-31T07:49:37;23.20;55.00
24744;DHT22;12844;52.110;5.548;2023-07-31T07:52:03;23.20;55.00
24744;DHT22;12844;52.110;5.548;2023-07-31T07:54:29;23.20;54.90
24744;DHT22;12844;52.110;5.548;2023-07-31T07:56:55;23.20;55.00
24744;DHT22;12844;52.110;5.548;2023-07-31T07:59:20;23.20;55.00
24744;DHT22;12844;52.110;5.548;2023-07-31T08:01:46;23.20;55.00
24744;DHT22;12844;52.110;5.548;2023-07-31T08:04:11;23.20;55.00
24744;DHT22;12844;52.110;5.548;2023-07-31T08:06:37;23.20;55.00
24744;DHT22;12844;52.110;5.548;2023-07-31T08:09:03;23.20;55.00
24744;DHT22;12844;52.110;5.548;2023-07-31T08:11:32;23.20;55.00
24744;DHT22;12844;52.110;5.548;2023-07-31T08:13:57;23.20;55.60
24744;DHT22;12844;52.110;5.548;2023-07-31T08:16:23;23.20;55.00
24744;DHT22;12844;52.110;5.548;2023-07-31T08:18:49;23.20;55.00
24744;DHT22;12844;52.110;5.548;2023-07-31T08:21:14;23.20;55.10
24744;DHT22;12844;52.110;5.548;2023-07-31T08:23:40;23.20;55.10
24744;DHT22;12844;52.110;5.548;2023-07-31T08:26:06;23.20;55.10
24744;DHT22;12844;52.110;5.548;2023-07-31T08:28:31;23.20;55.10
24744;DHT22;12844;52.110;5.548;2023-07-31T08:30:57;23.20;55.20
24744;DHT22;12844;52.110;5.548;2023-07-31T08:33:22;23.20;55.20
24744;DHT22;12844;52.110;5.548;2023-07-31T08:35:48;23.20;55.20
24744;DHT22;12844;52.110;5.548;2023-07-31T08:38:14;23.20;55.30
24744;DHT22;12844;52.110;5.548;2023-07-31T08:40:39;23.20;55.30
24744;DHT22;12844;52.110;5.548;2023-07-31T08:43:05;23.20;55.30
24744;DHT22;12844;52.110;5.548;2023-07-31T08:45:32;23.20;55.30
24744;DHT22;12844;52.110;5.548;2023-07-31T08:47:58;23.20;55.30
24744;DHT22;12844;52.110;5.548;2023-07-31T08:50:24;23.20;55.30
24744;DHT22;12844;52.110;5.548;2023-07-31T08:52:51;23.20;55.20
24744;DHT22;12844;52.110;5.548;2023-07-31T08:55:17;23.20;55.20
24744;DHT22;12844;52.110;5.548;2023-07-31T08:57:42;23.20;55.20
24744;DHT22;12844;52.110;5.548;2023-07-31T09:00:10;23.20;55.20
24744;DHT22;12844;52.110;5.548;2023-07-31T09:03:00;23.20;55.20
24744;DHT22;12844;52.110;5.548;2023-07-31T09:05:29;23.20;55.10
24744;DHT22;12844;52.110;5.548;2023-07-31T09:07:56;23.20;55.30
24744;DHT22;12844;52.110;5.548;2023-07-31T09:10:22;23.20;55.30
24744;DHT22;12844;52.110;5.548;2023-07-31T09:12:51;23.20;55.30
24744;DHT22;12844;52.110;5.548;2023-07-31T09:15:17;23.20;55.20
24744;DHT22;12844;52.110;5.548;2023-07-31T09:17:42;23.20;55.20
24744;DHT22;12844;52.110;5.548;2023-07-31T09:20:20;23.20;55.10
24744;DHT22;12844;52.110;5.548;2023-07-31T09:22:47;23.20;55.10
24744;DHT22;12844;52.110;5.548;2023-07-31T09:25:26;23.20;55.10
24744;DHT22;12844;52.110;5.548;2023-07-31T09:28:02;23.30;55.10
24744;DHT22;12844;52.110;5.548;2023-07-31T09:30:27;23.20;55.20
24744;DHT22;12844;52.110;5.548;2023-07-31T09:33:04;23.20;55.30
24744;DHT22;12844;52.110;5.548;2023-07-31T09:35:35;23.20;55.30
24744;DHT22;12844;52.110;5.548;2023-07-31T09:38:05;23.20;55.30
24744;DHT22;12844;52.110;5.548;2023-07-31T09:40:39;23.20;55.10
24744;DHT22;12844;52.110;5.548;2023-07-31T09:43:10;23.30;55.20
24744;DHT22;12844;52.110;5.548;2023-07-31T09:45:38;23.30;55.00
24744;DHT22;12844;52.110;5.548;2023-07-31T09:48:15;23.30;54.90
24744;DHT22;12844;52.110;5.548;2023-07-31T09:50:46;23.40;54.90
24744;DHT22;12844;52.110;5.548;2023-07-31T09:53:12;23.40;55.00
24744;DHT22;12844;52.110;5.548;2023-07-31T09:55:39;23.40;55.00
24744;DHT22;12844;52.110;5.548;2023-07-31T09:58:10;23.40;55.00
24744;DHT22;12844;52.110;5.548;2023-07-31T10:00:36;23.50;55.00
24744;DHT22;12844;52.110;5.548;2023-07-31T10:03:05;23.50;54.80
24744;DHT22;12844;52.110;5.548;2023-07-31T10:05:43;23.60;54.70
24744;DHT22;12844;52.110;5.548;2023-07-31T10:08:12;23.60;54.60
24744;DHT22;12844;52.110;5.548;2023-07-31T10:10:42;23.60;54.70
24744;DHT22;12844;52.110;5.548;2023-07-31T10:13:08;23.60;54.70
24744;DHT22;12844;52.110;5.548;2023-07-31T10:15:34;23.60;54.70
24744;DHT22;12844;52.110;5.548;2023-07-31T10:18:01;23.60;54.80
24744;DHT22;12844;52.110;5.548;2023-07-31T10:20:27;23.60;54.90
24744;DHT22;12844;52.110;5.548;2023-07-31T10:22:54;23.60;55.50
24744;DHT22;12844;52.110;5.548;2023-07-31T10:25:21;23.60;54.90
24744;DHT22;12844;52.110;5.548;2023-07-31T10:27:47;23.60;54.90
24744;DHT22;12844;52.110;5.548;2023-07-31T10:30:16;23.60;54.80
24744;DHT22;12844;52.110;5.548;2023-07-31T10:32:43;23.60;54.80
24744;DHT22;12844;52.110;5.548;2023-07-31T10:35:09;23.70;54.90
24744;DHT22;12844;52.110;5.548;2023-07-31T10:37:40;23.70;54.90
24744;DHT22;12844;52.110;5.548;2023-07-31T10:40:18;23.70;54.90
24744;DHT22;12844;52.110;5.548;2023-07-31T10:42:50;23.70;54.80
24744;DHT22;12844;52.110;5.548;2023-07-31T10:45:36;23.70;55.50
24744;DHT22;12844;52.110;5.548;2023-07-31T10:48:06;23.70;54.80
24744;DHT22;12844;52.110;5.548;2023-07-31T10:51:18;23.70;54.90
24744;DHT22;12844;52.110;5.548;2023-07-31T10:53:30;23.70;55.00
24744;DHT22;12844;52.110;5.548;2023-07-31T10:56:00;23.70;54.90
24744;DHT22;12844;52.110;5.548;2023-07-31T10:58:26;23.80;54.90
24744;DHT22;12844;52.110;5.548;2023-07-31T11:00:55;23.80;54.90
24744;DHT22;12844;52.110;5.548;2023-07-31T11:03:40;23.80;54.80
24744;DHT22;12844;52.110;5.548;2023-07-31T11:06:07;23.80;54.80
24744;DHT22;12844;52.110;5.548;2023-07-31T11:08:34;23.80;54.80
24744;DHT22;12844;52.110;5.548;2023-07-31T11:13:29;23.80;54.70
24744;DHT22;12844;52.110;5.548;2023-07-31T11:15:55;23.80;54.70
24744;DHT22;12844;52.110;5.548;2023-07-31T11:18:21;23.80;54.70
24744;DHT22;12844;52.110;5.548;2023-07-31T11:20:47;23.80;54.80
24744;DHT22;12844;52.110;5.548;2023-07-31T11:23:15;23.80;54.80
24744;DHT22;12844;52.110;5.548;2023-07-31T11:25:40;23.80;54.80
24744;DHT22;12844;52.110;5.548;2023-07-31T11:28:12;23.80;54.80
24744;DHT22;12844;52.110;5.548;2023-07-31T11:30:39;23.80;54.80
24744;DHT22;12844;52.110;5.548;2023-07-31T11:33:07;23.70;54.80
24744;DHT22;12844;52.110;5.548;2023-07-31T11:35:35;23.70;54.80
24744;DHT22;12844;52.110;5.548;2023-07-31T11:38:02;23.70;54.80
24744;DHT22;12844;52.110;5.548;2023-07-31T11:40:28;23.70;54.80
24744;DHT22;12844;52.110;5.548;2023-07-31T11:42:57;23.70;54.90
24744;DHT22;12844;52.110;5.548;2023-07-31T11:45:25;23.60;54.80
24744;DHT22;12844;52.110;5.548;2023-07-31T11:47:52;23.60;54.90
24744;DHT22;12844;52.110;5.548;2023-07-31T11:50:18;23.60;55.10
24744;DHT22;12844;52.110;5.548;2023-07-31T11:52:44;23.60;55.10
24744;DHT22;12844;52.110;5.548;2023-07-31T11:55:11;23.60;55.10
24744;DHT22;12844;52.110;5.548;2023-07-31T11:57:39;23.60;55.10
24744;DHT22;12844;52.110;5.548;2023-07-31T12:00:07;23.60;55.10
24744;DHT22;12844;52.110;5.548;2023-07-31T12:02:34;23.60;55.20
24744;DHT22;12844;52.110;5.548;2023-07-31T12:04:59;23.60;55.20
24744;DHT22;12844;52.110;5.548;2023-07-31T12:07:25;23.60;55.30
24744;DHT22;12844;52.110;5.548;2023-07-31T12:09:54;23.60;55.30
24744;DHT22;12844;52.110;5.548;2023-07-31T12:12:21;23.60;55.40
24744;DHT22;12844;52.110;5.548;2023-07-31T12:14:47;23.60;55.30
24744;DHT22;12844;52.110;5.548;2023-07-31T12:17:14;23.60;55.40
24744;DHT22;12844;52.110;5.548;2023-07-31T12:19:40;23.60;55.40
24744;DHT22;12844;52.110;5.548;2023-07-31T12:22:13;23.60;55.40
24744;DHT22;12844;52.110;5.548;2023-07-31T12:24:41;23.60;55.30
24744;DHT22;12844;52.110;5.548;2023-07-31T12:27:14;23.60;55.30
24744;DHT22;12844;52.110;5.548;2023-07-31T12:29:42;23.70;55.30
24744;DHT22;12844;52.110;5.548;2023-07-31T12:32:39;23.70;55.30
24744;DHT22;12844;52.110;5.548;2023-07-31T12:35:06;23.70;55.10
24744;DHT22;12844;52.110;5.548;2023-07-31T12:37:33;23.70;55.10
24744;DHT22;12844;52.110;5.548;2023-07-31T12:39:58;23.70;55.10
24744;DHT22;12844;52.110;5.548;2023-07-31T12:42:30;23.70;55.10
24744;DHT22;12844;52.110;5.548;2023-07-31T12:44:56;23.70;55.20
24744;DHT22;12844;52.110;5.548;2023-07-31T12:47:21;23.70;55.20
24744;DHT22;12844;52.110;5.548;2023-07-31T12:49:47;23.70;55.20
24744;DHT22;12844;52.110;5.548;2023-07-31T12:52:12;23.70;55.10
24744;DHT22;12844;52.110;5.548;2023-07-31T12:54:38;23.70;55.10
24744;DHT22;12844;52.110;5.548;2023-07-31T12:57:04;23.70;55.00
24744;DHT22;12844;52.110;5.548;2023-07-31T12:59:29;23.70;55.10
24744;DHT22;12844;52.110;5.548;2023-07-31T13:01:55;23.70;55.10
24744;DHT22;12844;52.110;5.548;2023-07-31T13:04:20;23.80;55.10
24744;DHT22;12844;52.110;5.548;2023-07-31T13:06:46;23.70;55.00
24744;DHT22;12844;52.110;5.548;2023-07-31T13:09:12;23.70;55.10
24744;DHT22;12844;52.110;5.548;2023-07-31T13:11:38;23.80;55.30
24744;DHT22;12844;52.110;5.548;2023-07-31T13:14:03;23.80;55.30
24744;DHT22;12844;52.110;5.548;2023-07-31T13:16:29;23.80;55.30
24744;DHT22;12844;52.110;5.548;2023-07-31T13:18:54;23.80;55.30
24744;DHT22;12844;52.110;5.548;2023-07-31T13:21:20;23.80;55.30
24744;DHT22;12844;52.110;5.548;2023-07-31T13:23:47;23.80;55.40
24744;DHT22;12844;52.110;5.548;2023-07-31T13:26:13;23.80;55.50
24744;DHT22;12844;52.110;5.548;2023-07-31T13:28:38;23.80;55.60
24744;DHT22;12844;52.110;5.548;2023-07-31T13:31:04;23.70;55.60
24744;DHT22;12844;52.110;5.548;2023-07-31T13:33:30;23.80;55.70
24744;DHT22;12844;52.110;5.548;2023-07-31T13:35:55;23.80;55.60
24744;DHT22;12844;52.110;5.548;2023-07-31T13:38:21;23.90;55.70
24744;DHT22;12844;52.110;5.548;2023-07-31T13:40:46;23.80;55.70
24744;DHT22;12844;52.110;5.548;2023-07-31T13:43:12;23.80;55.70
24744;DHT22;12844;52.110;5.548;2023-07-31T13:45:37;23.90;55.80
24744;DHT22;12844;52.110;5.548;2023-07-31T13:48:03;23.90;55.70
24744;DHT22;12844;52.110;5.548;2023-07-31T13:50:29;23.90;55.60
24744;DHT22;12844;52.110;5.548;2023-07-31T13:52:54;23.90;55.70
24744;DHT22;12844;52.110;5.548;2023-07-31T13:55:20;23.90;55.80
24744;DHT22;12844;52.110;5.548;2023-07-31T13:57:46;23.90;55.90
24744;DHT22;12844;52.110;5.548;2023-07-31T14:00:12;23.90;55.90
24744;DHT22;12844;52.110;5.548;2023-07-31T14:02:38;23.80;55.80
24744;DHT22;12844;52.110;5.548;2023-07-31T14:05:04;23.80;55.80
24744;DHT22;12844;52.110;5.548;2023-07-31T14:07:32;23.80;55.80
24744;DHT22;12844;52.110;5.548;2023-07-31T14:09:57;23.80;55.70
24744;DHT22;12844;52.110;5.548;2023-07-31T14:12:23;23.80;55.80
24744;DHT22;12844;52.110;5.548;2023-07-31T14:14:48;23.80;55.80
24744;DHT22;12844;52.110;5.548;2023-07-31T14:17:14;23.80;55.80
24744;DHT22;12844;52.110;5.548;2023-07-31T14:19:39;23.70;55.80
24744;DHT22;12844;52.110;5.548;2023-07-31T14:22:05;23.80;55.80
24744;DHT22;12844;52.110;5.548;2023-07-31T14:24:32;23.70;55.80
24744;DHT22;12844;52.110;5.548;2023-07-31T14:26:57;23.80;55.80
24744;DHT22;12844;52.110;5.548;2023-07-31T14:29:23;23.70;55.80
24744;DHT22;12844;52.110;5.548;2023-07-31T14:31:49;23.70;55.80
24744;DHT22;12844;52.110;5.548;2023-07-31T14:34:14;23.70;55.80
24744;DHT22;12844;52.110;5.548;2023-07-31T14:36:41;23.80;55.80
24744;DHT22;12844;52.110;5.548;2023-07-31T14:39:06;23.70;56.40
24744;DHT22;12844;52.110;5.548;2023-07-31T14:41:32;23.70;55.80
24744;DHT22;12844;52.110;5.548;2023-07-31T14:43:57;23.80;55.80
24744;DHT22;12844;52.110;5.548;2023-07-31T14:46:23;23.70;55.70
24744;DHT22;12844;52.110;5.548;2023-07-31T14:48:48;23.80;55.80
24744;DHT22;12844;52.110;5.548;2023-07-31T14:51:14;23.80;55.80
24744;DHT22;12844;52.110;5.548;2023-07-31T14:53:39;23.70;55.80
24744;DHT22;12844;52.110;5.548;2023-07-31T14:56:05;23.80;55.90
24744;DHT22;12844;52.110;5.548;2023-07-31T14:58:31;23.70;55.90
24744;DHT22;12844;52.110;5.548;2023-07-31T15:00:56;23.70;55.90
24744;DHT22;12844;52.110;5.548;2023-07-31T15:03:22;23.70;55.90
24744;DHT22;12844;52.110;5.548;2023-07-31T15:05:47;23.70;55.90
24744;DHT22;12844;52.110;5.548;2023-07-31T15:08:13;23.70;55.90
24744;DHT22;12844;52.110;5.548;2023-07-31T15:10:38;23.70;55.90
24744;DHT22;12844;52.110;5.548;2023-07-31T15:13:04;23.70;55.90
24744;DHT22;12844;52.110;5.548;2023-07-31T15:15:29;23.70;55.90
24744;DHT22;12844;52.110;5.548;2023-07-31T15:17:56;23.70;56.00
24744;DHT22;12844;52.110;5.548;2023-07-31T15:20:22;23.70;56.00
24744;DHT22;12844;52.110;5.548;2023-07-31T15:22:47;23.70;56.00
24744;DHT22;12844;52.110;5.548;2023-07-31T15:25:13;23.70;56.00
24744;DHT22;12844;52.110;5.548;2023-07-31T15:27:39;23.70;56.10
24744;DHT22;12844;52.110;5.548;2023-07-31T15:30:05;23.70;56.10
24744;DHT22;12844;52.110;5.548;2023-07-31T15:32:31;23.70;56.20
24744;DHT22;12844;52.110;5.548;2023-07-31T15:34:56;23.70;56.30
24744;DHT22;12844;52.110;5.548;2023-07-31T15:37:22;23.70;56.30
24744;DHT22;12844;52.110;5.548;2023-07-31T15:39:49;23.70;56.40
24744;DHT22;12844;52.110;5.548;2023-07-31T15:42:14;23.70;56.50
24744;DHT22;12844;52.110;5.548;2023-07-31T15:44:40;23.70;56.40
24744;DHT22;12844;52.110;5.548;2023-07-31T15:47:06;23.70;56.60